Spirit Lake, ID (83869)

5:20 AM PST on November 26, 2014 (GMT -0800)
Spirit Lake Idaho | Change Station
CLOSE
Current Station
Personal Weather Station
Location: Spirit Lake, ID
Elevation: 2604 ft
Nearby Weather Stations
Active Advisory: Winter Weather Advisory Active Notice: Record Report, Local Storm Report

Elev 2604 ft 47.96 °N, 116.84 °W | Updated 29 seconds ago

Overcast
Overcast
31.8 °F
Feels Like 32 °F
N
0.0
Wind Variable Wind from North
Gusts 0.0 mph

Today
High -- | Low -- °F
--% Chance of Precip.
Yesterday
High -- | Low -- °F
Precip. -- in
7:09 AM 3:59 PM
Waxing Crescent, 19% visible
Pressure 30.16 in
Visibility 2.5 miles
Clouds Scattered Clouds 700 ft
Mostly Cloudy 1100 ft
Overcast 1700 ft
Windchill 32 °F
Dew Point 31 °F
Humidity 98%
Rainfall 0.00 in
Snow Depth Not available.
UV 0 out of 12
Pollen .10 out of 12
Air Quality Not available.
Flu Activity Not available.
METAR KCOE 261315Z AUTO 04004KT 2 1/2SM SCT007 BKN011 OVC017 01/M01 A3016 RMK AO1

More Conditions Fewer Conditions

Pressure 30.16 in
Visibility 2.5 miles
Clouds Scattered Clouds 700 ft
Mostly Cloudy 1100 ft
Overcast 1700 ft
Windchill 32 °F
Dew Point 31 °F
Humidity 98%
Rainfall 0.00 in
Snow Depth Not available.
UV 0 out of 12
Pollen .10 out of 12
Air Quality Not available.
Flu Activity Not available.
METAR KCOE 261315Z AUTO 04004KT 2 1/2SM SCT007 BKN011 OVC017 01/M01 A3016 RMK AO1

More Conditions Fewer Conditions

10-Day Weather Forecast

Almanac

Astronomy

Nov. 26, 2014 Rise Set
Actual Time
Civil Twilight
Nautical Twilight
Astronomical Twilight
Moon
Length of Visible Light
Length of Day
Tomorrow will be .
, % of the Moon is Illuminated

Today's Extremes

State Highs State Lows

Community

WunderPhotos

Upload Photos

1,773,723 photos uploaded!

WunderBlogs® & News

Nearby

Air Quality

  Air Quality AQ Index Pollutant
Not available.

Snow Depth

Station Depth Elevation

Earthquake Activity

City Distance Mag. Time & Date
Minimum magnitude displayed is 2.5.

Coastal Water Temperatures

Place Temperature

Nearby Weather Stations